Terminal Aerodrome Forecast
Issued by NWS Twin Cities, MN

Home | Current Version | Previous Version | Graphics & Text | Print | Product List | Glossary On
Versions: 1 2 3 4 5 6 7 8 9 10 11 12 13 14 15 16 17 18 19 20
000
FTUS43 KMPX 300914 AAB
TAFEAU
TAF AMD
KEAU 300914Z 3009/0106 00000KT 6SM BR SCT010
      TEMPO 3009/3013 1SM BR BKN010
     FM301400 01007KT P6SM FEW035 BKN250=

USA.gov is the U.S. government's official web portal to all federal, state and local government web resources and services.